Time;durP1;ratioP1;P1;durP2;ratioP2;P2;SDS_P1;SDS_P2;PMS_P1;PMS_P2;Temp;Humidity;BMP_temperature;BMP_pressure;BME280_temperature;BME280_humidity;BME280_pressure;Samples;Min_cycle;Max_cycle;Signal;HPM_P1;HPM_P2
2020/12/05 00:30:28;;;;;;;2.10;1.08;;;;;;;17.17;52.00;99239.63;3207555;27;20037;-82
2020/12/05 00:33:38;;;;;;;2.38;1.13;;;;;;;17.16;51.99;99250.94;4859825;29;20061;-82
2020/12/05 04:42:15;;;;;;;1.05;0.60;;;;;;;16.75;50.61;99377.78;5262287;24;20072;-83
2020/12/05 04:49:04;;;;;;;1.50;0.60;;;;;;;16.74;50.71;99375.22;4787091;30;20054;-83
2020/12/05 04:58:56;;;;;;;0.85;0.70;;;;;;;16.72;50.63;99392.59;4792011;30;20046;-83
2020/12/05 05:02:06;;;;;;;2.85;0.70;;;;;;;16.72;50.55;99396.03;4754427;30;20040;-83
2020/12/05 05:08:17;;;;;;;0.90;0.70;;;;;;;16.70;50.64;99397.84;4755657;30;20136;-83
2020/12/05 05:11:26;;;;;;;0.70;0.50;;;;;;;16.72;50.84;99388.22;4755510;30;20055;-83
2020/12/05 05:18:11;;;;;;;0.80;0.63;;;;;;;16.71;50.54;99404.72;4748231;30;20059;-83
2020/12/05 05:28:41;;;;;;;1.83;0.68;;;;;;;16.67;50.81;99423.88;4695948;30;20061;-84
2020/12/05 05:42:24;;;;;;;0.73;0.63;;;;;;;16.67;50.45;99450.69;4731695;30;20044;-83
2020/12/05 05:45:48;;;;;;;1.65;0.90;;;;;;;16.66;50.40;99451.63;4698296;30;20061;-83
2020/12/05 05:52:10;;;;;;;0.93;0.60;;;;;;;16.66;50.57;99475.00;4696515;30;20045;-84
2020/12/05 05:54:54;;;;;;;0.60;0.50;;;;;;;16.64;50.43;99476.78;4966835;24;20055;-81
2020/12/05 05:57:19;;;;;;;0.93;0.50;;;;;;;16.65;50.31;99469.81;4845648;29;20030;-81
2020/12/05 06:03:19;;;;;;;1.65;0.82;;;;;;;16.65;50.60;99481.06;4866639;29;20037;-83
2020/12/05 06:06:12;;;;;;;0.82;0.60;;;;;;;16.63;50.27;99477.66;4839137;29;20037;-83
2020/12/05 06:09:19;;;;;;;1.65;0.70;;;;;;;16.61;50.42;99469.09;4802789;29;20029;-83
2020/12/05 06:12:13;;;;;;;1.27;0.68;;;;;;;16.62;50.50;99473.38;4844167;29;20038;-83
2020/12/05 06:14:45;;;;;;;1.10;0.68;;;;;;;16.58;50.37;99474.34;4846991;29;20136;-82
2020/12/05 06:21:17;;;;;;;1.00;0.63;;;;;;;16.59;50.45;99470.88;4880375;29;20094;-83
2020/12/05 06:47:45;;;;;;;1.20;0.60;;;;;;;16.58;50.53;99487.31;4788478;30;20068;-82
2020/12/05 07:16:18;;;;;;;2.78;0.95;;;;;;;16.72;50.87;99531.09;5317325;23;20085;-81
2020/12/05 07:18:48;;;;;;;2.13;1.10;;;;;;;16.82;50.66;99530.00;5088670;23;20063;-79
2020/12/05 07:21:14;;;;;;;9.70;1.35;;;;;;;16.86;50.22;99535.97;4867609;29;20029;-80
2020/12/05 07:23:40;;;;;;;4.03;1.10;;;;;;;16.90;50.20;99544.53;4866117;29;20033;-80
2020/12/05 07:26:43;;;;;;;7.18;1.30;;;;;;;16.95;49.91;99547.88;4900082;29;20013;-82
2020/12/05 07:29:31;;;;;;;3.13;1.00;;;;;;;16.96;50.14;99547.84;4870678;29;20025;-81
2020/12/05 07:32:43;;;;;;;2.38;1.00;;;;;;;16.99;49.78;99550.34;4901319;29;20025;-82
2020/12/05 07:35:31;;;;;;;4.13;1.00;;;;;;;17.01;50.01;99551.16;4893932;29;20064;-82
2020/12/05 07:37:57;;;;;;;2.70;1.05;;;;;;;17.03;49.81;99556.31;4848959;29;20488;-80
2020/12/05 07:40:29;;;;;;;2.58;0.80;;;;;;;17.04;49.84;99555.41;4867948;29;20037;-80
2020/12/05 07:42:55;;;;;;;2.15;0.93;;;;;;;17.03;49.86;99561.50;4867938;29;20041;-81
2020/12/05 07:45:21;;;;;;;3.15;0.90;;;;;;;17.07;49.66;99560.50;4854225;29;20047;-81
2020/12/05 07:47:46;;;;;;;3.03;0.73;;;;;;;17.08;49.73;99559.63;4880204;29;20522;-81
2020/12/05 07:50:12;;;;;;;2.25;0.88;;;;;;;17.08;49.76;99564.81;4865927;29;20034;-81
2020/12/05 07:52:41;;;;;;;4.03;1.00;;;;;;;17.07;49.76;99563.09;4900594;29;20066;-81
2020/12/05 07:55:09;;;;;;;3.03;0.90;;;;;;;17.10;49.67;99576.03;4881802;29;20020;-81
2020/12/05 07:57:37;;;;;;;1.75;0.80;;;;;;;17.11;49.63;99574.28;4901260;29;20044;-81
2020/12/05 08:00:13;;;;;;;1.65;0.80;;;;;;;17.12;49.66;99589.00;4886194;29;20036;-81
2020/12/05 08:06:46;;;;;;;3.28;0.80;;;;;;;17.16;49.54;99619.19;4869550;29;20040;-80
2020/12/05 08:09:18;;;;;;;1.63;0.90;;;;;;;17.16;49.55;99617.47;4929290;24;20125;-80
2020/12/05 08:11:50;;;;;;;2.33;0.95;;;;;;;17.18;49.62;99622.59;4868971;29;20032;-80
2020/12/05 08:14:15;;;;;;;1.90;0.80;;;;;;;17.18;49.60;99618.28;4846662;29;20604;-79
2020/12/05 08:16:42;;;;;;;1.40;0.80;;;;;;;17.20;49.33;99632.09;4842324;29;20062;-79
2020/12/05 08:19:08;;;;;;;2.00;1.00;;;;;;;17.21;49.66;99635.53;4846759;29;20052;-80
2020/12/05 08:21:35;;;;;;;1.65;0.93;;;;;;;17.19;49.71;99643.38;4864960;29;20389;-81
2020/12/05 08:24:10;;;;;;;1.90;0.90;;;;;;;17.20;49.64;99646.81;4847852;29;20533;-80
2020/12/05 08:26:37;;;;;;;2.00;0.90;;;;;;;17.18;49.87;99644.28;4815311;29;20404;-80
2020/12/05 08:29:05;;;;;;;3.05;0.80;;;;;;;17.19;50.05;99642.50;4858905;29;20038;-81
2020/12/05 08:31:31;;;;;;;1.70;0.95;;;;;;;17.20;49.80;99652.88;4860061;29;20029;-80
2020/12/05 08:33:56;;;;;;;2.67;0.80;;;;;;;17.21;49.81;99656.34;4843335;29;20034;-79
2020/12/05 08:36:36;;;;;;;3.95;0.95;;;;;;;17.25;49.76;99663.16;4815209;29;20041;-79
2020/12/05 08:39:10;;;;;;;1.60;0.80;;;;;;;17.28;49.54;99663.06;4830662;29;20029;-80
2020/12/05 08:41:45;;;;;;;1.75;0.90;;;;;;;17.30;49.68;99669.06;4848488;29;20029;-80
2020/12/05 08:44:13;;;;;;;1.52;0.82;;;;;;;17.32;49.75;99671.66;4844718;29;20507;-80
2020/12/05 08:46:38;;;;;;;1.88;0.98;;;;;;;17.34;49.61;99673.31;4850731;29;20038;-79
2020/12/05 08:49:37;;;;;;;1.40;0.70;;;;;;;17.39;49.59;99680.97;4853084;29;20049;-81
2020/12/05 08:52:04;;;;;;;2.35;0.93;;;;;;;17.39;49.63;99684.44;4831636;29;20089;-80
2020/12/05 08:54:29;;;;;;;1.88;0.80;;;;;;;17.40;49.58;99674.91;4844177;29;20139;-80
2020/12/05 08:57:08;;;;;;;1.92;0.90;;;;;;;17.43;49.63;99674.81;4816391;29;20072;-81
2020/12/05 08:59:34;;;;;;;3.75;0.90;;;;;;;17.41;49.67;99668.78;4866183;29;20029;-80
2020/12/05 09:02:00;;;;;;;3.03;0.90;;;;;;;17.40;49.78;99674.91;4863694;29;20081;-80
2020/12/05 09:04:27;;;;;;;1.30;0.80;;;;;;;17.38;49.60;99677.53;4829375;29;20042;-80
2020/12/05 09:06:54;;;;;;;1.65;0.80;;;;;;;17.37;49.94;99682.75;4831598;29;20041;-80
2020/12/05 09:09:29;;;;;;;2.50;0.80;;;;;;;17.36;49.82;99681.91;4825508;29;20054;-80
2020/12/05 09:12:13;;;;;;;2.13;1.10;;;;;;;17.37;49.78;99682.75;4838244;29;20061;-80
2020/12/05 09:14:39;;;;;;;1.30;0.80;;;;;;;17.36;49.90;99684.53;4863180;29;20081;-81
2020/12/05 09:17:23;;;;;;;1.58;1.00;;;;;;;17.41;49.84;99690.44;4833801;29;20042;-81
2020/12/05 09:19:49;;;;;;;1.85;0.95;;;;;;;17.43;49.87;99691.25;4845995;29;20030;-80
2020/12/05 09:22:32;;;;;;;3.65;0.80;;;;;;;17.42;49.97;99697.38;4845451;29;20037;-79
2020/12/05 09:24:58;;;;;;;1.85;0.90;;;;;;;17.39;49.96;99692.22;4852120;29;20037;-78
2020/12/05 09:27:41;;;;;;;1.85;0.80;;;;;;;17.40;49.97;99699.16;4832935;29;20059;-79
2020/12/05 09:30:10;;;;;;;1.38;0.65;;;;;;;17.40;50.14;99695.72;4855864;29;20037;-80
2020/12/05 09:32:38;;;;;;;2.80;0.82;;;;;;;17.41;50.03;99702.59;4829217;29;20030;-80
2020/12/05 09:35:04;;;;;;;1.23;0.60;;;;;;;17.39;49.88;99704.38;4819425;29;20030;-80
2020/12/05 09:37:30;;;;;;;3.30;0.90;;;;;;;17.39;49.98;99713.03;4833742;29;20129;-80
2020/12/05 09:39:55;;;;;;;1.70;0.88;;;;;;;17.40;49.96;99722.56;4824465;29;20132;-80
2020/12/05 09:42:24;;;;;;;1.48;0.70;;;;;;;17.39;49.96;99715.63;4828802;29;20033;-80
2020/12/05 09:44:50;;;;;;;1.27;0.85;;;;;;;17.39;49.93;99726.03;4830339;29;20124;-81
2020/12/05 09:47:16;;;;;;;3.08;0.73;;;;;;;17.38;50.01;99715.69;4830596;29;20026;-81
2020/12/05 09:49:41;;;;;;;1.85;0.90;;;;;;;17.39;50.01;99722.59;4830515;29;20034;-80
2020/12/05 09:52:07;;;;;;;1.35;0.80;;;;;;;17.39;50.11;99722.59;4804507;29;20177;-80
2020/12/05 09:54:33;;;;;;;1.17;0.80;;;;;;;17.39;49.92;99717.38;4824071;29;20363;-80
2020/12/05 09:57:01;;;;;;;1.35;0.68;;;;;;;17.40;49.95;99719.97;4831774;29;20029;-81
2020/12/05 09:59:27;;;;;;;1.42;0.65;;;;;;;17.40;50.13;99714.75;4841543;29;20059;-80
2020/12/05 10:01:52;;;;;;;1.35;0.70;;;;;;;17.41;50.02;99707.78;4816988;29;20041;-80
2020/12/05 10:04:17;;;;;;;1.42;0.73;;;;;;;17.41;49.99;99718.19;4839614;29;20041;-81
2020/12/05 10:06:43;;;;;;;1.50;0.80;;;;;;;17.41;50.02;99720.81;4822783;29;20066;-81
2020/12/05 10:09:08;;;;;;;1.48;0.77;;;;;;;17.40;49.96;99727.75;4828765;29;20050;-81
2020/12/05 10:11:33;;;;;;;1.85;0.70;;;;;;;17.40;50.03;99722.56;4810038;29;20045;-81
2020/12/05 10:13:59;;;;;;;0.80;0.57;;;;;;;17.41;49.98;99737.25;4835803;29;20102;-81
2020/12/05 10:16:24;;;;;;;1.10;0.70;;;;;;;17.41;49.94;99734.66;4815096;29;20419;-80
2020/12/05 10:18:49;;;;;;;1.33;0.70;;;;;;;17.41;50.03;99726.00;4820167;29;20108;-81
2020/12/05 10:21:14;;;;;;;1.60;0.88;;;;;;;17.43;49.78;99737.22;4841334;29;20034;-81
2020/12/05 10:23:40;;;;;;;1.50;0.70;;;;;;;17.43;50.16;99732.03;4828028;29;20038;-81
2020/12/05 10:26:07;;;;;;;1.35;0.73;;;;;;;17.43;49.97;99726.81;4833896;29;20030;-81
2020/12/05 10:28:32;;;;;;;1.08;0.63;;;;;;;17.42;49.97;99727.69;4847175;29;20093;-81
2020/12/05 10:30:58;;;;;;;0.90;0.68;;;;;;;17.44;49.85;99729.38;4821060;29;20069;-81
2020/12/05 10:33:23;;;;;;;1.02;0.63;;;;;;;17.44;49.96;99720.72;4825755;29;20045;-81
2020/12/05 10:35:48;;;;;;;1.08;0.70;;;;;;;17.43;49.99;99725.06;4846194;29;20024;-81
2020/12/05 10:38:14;;;;;;;1.33;0.80;;;;;;;17.45;50.02;99722.44;4849709;29;20052;-81
2020/12/05 10:40:39;;;;;;;0.95;0.60;;;;;;;17.45;49.88;99727.63;4844215;29;20034;-81
2020/12/05 10:43:05;;;;;;;1.27;0.60;;;;;;;17.46;49.82;99731.94;4835480;29;20568;-81
2020/12/05 10:45:31;;;;;;;1.30;0.90;;;;;;;17.44;49.85;99724.19;4831441;29;20038;-81
2020/12/05 10:47:56;;;;;;;1.30;0.77;;;;;;;17.45;49.98;99728.47;4848253;29;20026;-82
2020/12/05 10:50:22;;;;;;;1.83;0.80;;;;;;;17.45;49.78;99728.47;4834914;29;20029;-80
2020/12/05 10:52:47;;;;;;;0.80;0.60;;;;;;;17.46;50.00;99727.59;4817588;29;20482;-80
2020/12/05 10:55:12;;;;;;;1.33;0.75;;;;;;;17.48;49.75;99732.75;4816859;29;20084;-80
2020/12/05 10:57:38;;;;;;;2.53;0.80;;;;;;;17.48;49.98;99740.53;4835748;29;20068;-80
2020/12/05 11:00:03;;;;;;;1.23;0.70;;;;;;;17.52;49.75;99728.31;4817374;29;20065;-79
2020/12/05 11:02:28;;;;;;;1.10;0.70;;;;;;;17.53;49.66;99733.50;4843341;29;20128;-79
2020/12/05 11:04:54;;;;;;;0.88;0.60;;;;;;;17.51;49.79;99742.19;4818429;29;20045;-80
2020/12/05 11:07:19;;;;;;;3.65;0.77;;;;;;;17.47;50.06;99747.50;4862650;29;20389;-80
2020/12/05 11:09:44;;;;;;;0.88;0.63;;;;;;;17.45;50.21;99746.69;4833004;29;20049;-81
2020/12/05 11:12:10;;;;;;;1.10;0.73;;;;;;;17.45;50.34;99759.69;4832638;29;20037;-80
2020/12/05 11:14:35;;;;;;;4.10;1.00;;;;;;;17.43;50.27;99755.44;4842307;29;20392;-80
2020/12/05 11:17:00;;;;;;;5.95;1.10;;;;;;;17.42;50.73;99751.09;4815756;29;20037;-80
2020/12/05 11:19:26;;;;;;;2.05;0.90;;;;;;;17.42;50.91;99758.91;4816329;29;20366;-80
2020/12/05 11:21:51;;;;;;;5.35;1.23;;;;;;;17.42;51.33;99762.38;4830724;29;20489;-80
2020/12/05 11:24:17;;;;;;;4.45;1.25;;;;;;;17.44;51.43;99759.72;4829574;29;20034;-80
2020/12/05 11:26:42;;;;;;;5.28;1.05;;;;;;;17.44;52.25;99757.13;4843892;29;20438;-80
2020/12/05 11:29:07;;;;;;;6.30;1.42;;;;;;;17.45;52.42;99757.09;4818598;29;20037;-80
2020/12/05 11:31:33;;;;;;;4.05;1.23;;;;;;;17.49;52.75;99757.88;4844993;29;20029;-80
2020/12/05 11:33:58;;;;;;;5.95;1.50;;;;;;;17.54;53.47;99757.75;4830153;29;20108;-80
2020/12/05 11:36:24;;;;;;;7.68;1.50;;;;;;;17.54;53.78;99763.78;4833787;29;20475;-80
2020/12/05 11:38:49;;;;;;;13.63;3.25;;;;;;;17.60;54.63;99771.44;4849712;29;20038;-80
2020/12/05 11:41:16;;;;;;;19.60;5.47;;;;;;;17.64;54.80;99775.69;4814171;29;20034;-80
2020/12/05 11:43:41;;;;;;;23.42;5.63;;;;;;;17.66;54.52;99781.69;4813450;29;20054;-80
2020/12/05 11:46:07;;;;;;;25.55;5.25;;;;;;;17.68;54.19;99779.91;4831691;29;20136;-80
2020/12/05 11:48:32;;;;;;;17.95;4.82;;;;;;;17.69;54.03;99785.97;4840577;29;20033;-80
2020/12/05 11:50:57;;;;;;;14.20;4.13;;;;;;;17.68;53.92;99781.63;4833380;29;20061;-81
2020/12/05 11:53:23;;;;;;;14.32;4.00;;;;;;;17.68;53.83;99785.09;4872203;29;20037;-80
2020/12/05 11:55:48;;;;;;;14.85;3.50;;;;;;;17.66;53.27;99778.25;4821067;29;20098;-79
2020/12/05 11:58:14;;;;;;;14.20;3.40;;;;;;;17.68;53.75;99782.50;4834132;29;20041;-80
2020/12/05 12:00:39;;;;;;;11.68;3.60;;;;;;;17.68;53.42;99782.50;4857873;29;20034;-79
2020/12/05 12:03:05;;;;;;;9.13;2.75;;;;;;;17.65;54.64;99787.78;4848203;29;20042;-80
2020/12/05 12:05:30;;;;;;;15.77;3.83;;;;;;;16.82;78.39;99805.41;4864101;29;20425;-79
2020/12/05 12:07:55;;;;;;;12.13;2.88;;;;;;;16.55;79.22;99809.47;4839144;29;20198;-78
2020/12/05 12:10:21;;;;;;;15.55;2.97;;;;;;;16.31;80.01;99813.44;4822316;29;20030;-77
2020/12/05 12:12:46;;;;;;;10.77;2.85;;;;;;;16.14;80.41;99818.94;4846196;29;20970;-78
2020/12/05 12:15:15;;;;;;;6.97;2.58;;;;;;;16.03;79.90;99819.16;4831270;29;20516;-79
2020/12/05 12:17:41;;;;;;;5.50;2.30;;;;;;;15.97;79.50;99826.22;4846170;29;20480;-78
2020/12/05 12:20:07;;;;;;;8.23;2.88;;;;;;;15.90;79.61;99817.69;4831275;29;20086;-76
2020/12/05 12:22:32;;;;;;;5.70;2.70;;;;;;;15.88;79.95;99822.03;4847060;29;20444;-77
2020/12/05 12:24:57;;;;;;;11.43;2.88;;;;;;;15.87;80.44;99828.09;4812667;29;20041;-77
2020/12/05 12:27:23;;;;;;;6.47;2.58;;;;;;;15.88;80.25;99828.97;4829233;29;20063;-77
2020/12/05 12:29:48;;;;;;;13.60;2.97;;;;;;;15.88;79.45;99834.16;4844012;29;20037;-77
2020/12/05 12:32:13;;;;;;;7.32;2.80;;;;;;;15.86;80.38;99829.00;4812486;29;20393;-77
2020/12/05 12:34:39;;;;;;;8.93;3.17;;;;;;;15.86;80.62;99823.81;4827256;29;20069;-77
2020/12/05 12:37:04;;;;;;;11.05;4.47;;;;;;;15.86;80.52;99820.38;4830486;29;20037;-77
2020/12/05 12:39:30;;;;;;;6.18;3.70;;;;;;;15.83;80.37;99822.13;4830449;29;20538;-77
2020/12/05 12:41:55;;;;;;;10.55;4.03;;;;;;;15.83;80.31;99819.53;4845964;29;20497;-77
2020/12/05 12:44:21;;;;;;;7.00;3.75;;;;;;;15.84;80.27;99821.22;4830655;29;20033;-77
2020/12/05 12:46:53;;;;;;;8.70;4.20;;;;;;;15.82;80.35;99817.81;4836365;29;20071;-77
2020/12/05 12:49:18;;;;;;;8.57;3.97;;;;;;;15.82;80.70;99811.78;4814242;29;20029;-77
2020/12/05 12:51:43;;;;;;;8.23;3.63;;;;;;;15.81;80.54;99813.53;4828589;29;20037;-77
2020/12/05 12:54:09;;;;;;;8.15;3.47;;;;;;;15.79;80.50;99817.88;4855849;29;20034;-77
2020/12/05 12:56:38;;;;;;;8.55;3.80;;;;;;;15.80;80.44;99819.56;4812461;29;20041;-79
2020/12/05 12:59:03;;;;;;;6.10;3.60;;;;;;;15.81;81.13;99816.13;4841163;29;20038;-78
2020/12/05 13:01:29;;;;;;;9.88;3.33;;;;;;;15.80;80.32;99814.38;4846134;29;20393;-78
2020/12/05 13:03:57;;;;;;;7.25;3.55;;;;;;;15.82;80.51;99812.63;4830407;29;20065;-79
2020/12/05 13:06:23;;;;;;;5.63;3.15;;;;;;;15.81;80.76;99823.06;4838142;29;20033;-77
2020/12/05 13:08:49;;;;;;;8.20;3.15;;;;;;;15.80;80.58;99822.16;4842953;29;20056;-78
2020/12/05 13:11:15;;;;;;;7.68;3.40;;;;;;;15.84;81.09;99825.56;4826263;29;20060;-78
2020/12/05 13:13:41;;;;;;;4.93;3.33;;;;;;;15.81;80.84;99820.44;4844165;29;20046;-78
2020/12/05 13:16:07;;;;;;;5.75;3.20;;;;;;;15.83;81.19;99829.06;4841992;29;20117;-78
2020/12/05 13:18:32;;;;;;;6.60;3.17;;;;;;;15.83;80.68;99831.66;4827220;29;20057;-78
2020/12/05 13:20:57;;;;;;;8.57;3.40;;;;;;;15.81;80.99;99834.28;4842490;29;20069;-78
2020/12/05 13:23:23;;;;;;;7.20;3.03;;;;;;;15.83;80.78;99842.88;4838258;29;20040;-78
2020/12/05 13:25:49;;;;;;;4.57;2.90;;;;;;;15.84;80.43;99843.72;4808570;29;20041;-79
2020/12/05 13:28:14;;;;;;;6.65;2.83;;;;;;;15.83;80.84;99845.47;4841812;29;20030;-79
2020/12/05 13:30:39;;;;;;;7.15;2.90;;;;;;;15.82;81.10;99851.53;4813494;29;20120;-78
2020/12/05 13:33:05;;;;;;;6.03;2.90;;;;;;;15.78;79.86;99857.66;4811718;29;20042;-79
2020/12/05 13:35:30;;;;;;;8.27;2.80;;;;;;;15.79;80.18;99858.53;4831344;29;20033;-75
2020/12/05 13:37:56;;;;;;;6.63;3.00;;;;;;;15.78;80.65;99859.41;4844507;29;20442;-76
2020/12/05 13:40:21;;;;;;;5.78;2.85;;;;;;;15.81;80.21;99870.59;4841449;29;20030;-74
2020/12/05 13:42:46;;;;;;;5.07;2.47;;;;;;;15.80;80.18;99868.88;4839487;29;20030;-75
2020/12/05 13:45:12;;;;;;;6.32;2.58;;;;;;;15.81;79.41;99873.19;4805503;29;20037;-75
2020/12/05 13:47:37;;;;;;;6.20;2.50;;;;;;;15.88;79.14;99870.50;4822037;29;20070;-77
2020/12/05 13:50:03;;;;;;;11.02;2.72;;;;;;;15.87;80.08;99871.34;4821574;29;20045;-77
2020/12/05 13:52:28;;;;;;;3.97;2.35;;;;;;;15.88;80.54;99875.69;4836163;29;20117;-76
2020/12/05 13:54:53;;;;;;;6.85;2.55;;;;;;;15.87;80.25;99879.13;4823276;29;20052;-78
2020/12/05 13:57:19;;;;;;;5.85;2.70;;;;;;;15.87;80.58;99876.53;4824528;29;20095;-78
2020/12/05 13:59:44;;;;;;;8.50;2.42;;;;;;;15.88;80.56;99880.88;4826324;29;20049;-79
2020/12/05 14:02:13;;;;;;;6.57;2.88;;;;;;;15.84;80.13;99888.69;4809068;29;20049;-78
2020/12/05 14:04:38;;;;;;;4.72;2.30;;;;;;;15.88;80.60;99891.25;4836449;29;20087;-80
2020/12/05 14:07:04;;;;;;;4.20;2.60;;;;;;;15.86;80.67;99888.66;4810999;29;20022;-80
2020/12/05 14:09:30;;;;;;;4.22;2.40;;;;;;;15.87;80.38;99897.31;4805100;29;20140;-78
2020/12/05 14:11:58;;;;;;;6.18;2.30;;;;;;;15.88;80.12;99899.03;4812191;29;20040;-79
2020/12/05 14:14:23;;;;;;;5.63;2.45;;;;;;;15.88;80.46;99897.28;4841025;29;20434;-78
2020/12/05 14:16:52;;;;;;;4.18;2.50;;;;;;;15.89;80.72;99898.13;4810965;29;20037;-78
2020/12/05 14:19:17;;;;;;;3.90;2.42;;;;;;;15.87;80.42;99898.16;4834719;29;20348;-78
2020/12/05 14:21:43;;;;;;;3.50;2.25;;;;;;;15.88;79.92;99906.81;4810894;29;20040;-78
2020/12/05 14:24:08;;;;;;;4.18;2.30;;;;;;;15.88;80.26;99910.25;4810914;29;20086;-78
2020/12/05 14:26:34;;;;;;;3.92;2.17;;;;;;;15.88;80.38;99910.25;4823121;29;20042;-78
2020/12/05 14:28:59;;;;;;;5.07;2.00;;;;;;;15.90;80.40;99913.69;4835396;29;20069;-78
2020/12/05 14:31:26;;;;;;;5.97;2.25;;;;;;;15.92;80.18;99927.50;4825030;29;20041;-79
2020/12/05 14:33:52;;;;;;;4.05;2.10;;;;;;;15.92;79.86;99924.88;4852464;29;20037;-78
2020/12/05 14:36:36;;;;;;;3.60;2.05;;;;;;;15.94;79.99;99936.09;4845066;29;20033;-79
2020/12/05 14:39:02;;;;;;;6.15;2.00;;;;;;;15.94;80.02;99935.22;4844006;29;20049;-79
2020/12/05 14:41:28;;;;;;;6.43;2.10;;;;;;;15.95;79.43;99935.19;4843493;29;20030;-79
2020/12/05 14:43:53;;;;;;;3.97;1.85;;;;;;;15.96;78.96;99938.66;4842101;29;20532;-79
2020/12/05 14:46:18;;;;;;;6.10;1.80;;;;;;;16.01;78.64;99939.44;4838676;29;20041;-79
2020/12/05 14:48:44;;;;;;;2.92;1.48;;;;;;;16.01;77.73;99942.03;4811573;29;20037;-79
2020/12/05 14:51:10;;;;;;;3.25;1.85;;;;;;;16.03;77.73;99935.94;4840567;29;20033;-79
2020/12/05 14:53:36;;;;;;;2.97;1.85;;;;;;;16.07;77.43;99948.84;4839379;29;20473;-79
2020/12/05 14:56:04;;;;;;;2.85;1.77;;;;;;;16.05;77.27;99951.50;4830794;29;20516;-79
2020/12/05 14:58:30;;;;;;;2.50;1.45;;;;;;;16.05;77.19;99954.09;4826516;29;20454;-79
2020/12/05 15:00:56;;;;;;;4.15;1.73;;;;;;;16.07;76.76;99957.50;4824526;29;20049;-79
2020/12/05 15:03:21;;;;;;;2.45;1.50;;;;;;;16.09;76.62;99968.72;4827766;29;20041;-80
2020/12/05 15:05:47;;;;;;;3.08;1.73;;;;;;;16.11;76.53;99963.47;4840403;29;20030;-79
2020/12/05 15:08:12;;;;;;;2.78;1.60;;;;;;;16.11;76.52;99958.28;4828251;29;20065;-78
2020/12/05 15:10:38;;;;;;;4.65;1.35;;;;;;;16.13;76.40;99970.34;4835155;29;20038;-79
2020/12/05 15:13:03;;;;;;;2.78;1.52;;;;;;;16.13;75.59;99972.09;4810548;29;20438;-79
2020/12/05 15:15:29;;;;;;;2.63;1.58;;;;;;;16.13;75.66;99970.34;4841121;29;20039;-79
2020/12/05 15:17:54;;;;;;;2.95;1.60;;;;;;;16.14;75.58;99971.25;4846347;29;20041;-79
2020/12/05 15:20:20;;;;;;;3.33;1.52;;;;;;;16.13;75.67;99969.50;4834068;29;20026;-80
2020/12/05 15:22:45;;;;;;;2.95;1.70;;;;;;;16.14;75.43;99977.28;4863990;29;20033;-79
2020/12/05 15:25:10;;;;;;;4.45;1.35;;;;;;;16.15;75.42;99975.53;4837596;29;20030;-78
2020/12/05 15:27:39;;;;;;;1.83;1.25;;;;;;;16.14;75.40;99985.06;4831564;29;20045;-78
2020/12/05 15:30:05;;;;;;;3.72;1.75;;;;;;;16.15;75.42;99984.16;4873790;29;20029;-82
2020/12/05 15:32:31;;;;;;;2.33;1.55;;;;;;;16.17;75.03;99986.75;4846168;29;20034;-82
2020/12/05 15:34:57;;;;;;;2.90;1.45;;;;;;;16.16;75.25;99996.28;4866045;29;20065;-82
2020/12/05 15:37:25;;;;;;;2.60;1.40;;;;;;;16.15;74.72;99993.69;4881491;29;20036;-82
2020/12/05 15:39:52;;;;;;;2.03;1.40;;;;;;;16.16;75.21;100008.41;4854577;29;20034;-82
2020/12/05 15:42:18;;;;;;;3.92;1.50;;;;;;;16.14;74.97;100010.16;4863701;29;20045;-83
2020/12/05 15:44:45;;;;;;;2.40;1.20;;;;;;;16.18;74.46;100017.03;4867274;29;20033;-83
2020/12/05 15:47:11;;;;;;;1.85;1.27;;;;;;;16.17;74.66;100010.97;4874136;29;20057;-83
2020/12/05 15:49:37;;;;;;;2.75;1.33;;;;;;;16.18;74.81;100019.63;4875292;29;20085;-83
2020/12/05 15:52:22;;;;;;;1.52;1.15;;;;;;;16.18;74.28;100024.81;4866296;29;20053;-82
2020/12/05 15:54:55;;;;;;;3.80;1.25;;;;;;;16.18;74.69;100022.22;4834437;29;20034;-83
2020/12/05 15:57:45;;;;;;;3.20;1.40;;;;;;;16.17;74.57;100023.09;4853110;29;20045;-82
2020/12/05 16:00:15;;;;;;;2.20;1.38;;;;;;;16.17;74.34;100033.47;4866152;29;20029;-82
2020/12/05 16:02:50;;;;;;;1.67;1.15;;;;;;;16.20;74.04;100041.19;4881503;29;20050;-83
2020/12/05 16:05:17;;;;;;;3.67;1.35;;;;;;;16.19;74.25;100035.16;4867060;29;20021;-81
2020/12/05 16:07:43;;;;;;;2.50;1.25;;;;;;;16.21;73.01;100038.59;4865956;29;20029;-80
2020/12/05 16:10:08;;;;;;;2.85;1.55;;;;;;;16.34;70.83;100035.78;4863658;29;20057;-80
2020/12/05 16:12:34;;;;;;;2.97;1.30;;;;;;;16.41;70.14;100046.03;4833503;29;20178;-78
2020/12/05 16:15:19;;;;;;;5.15;2.40;;;;;;;16.50;73.01;100046.75;4832304;29;20442;-79
2020/12/05 16:17:44;;;;;;;5.65;1.38;;;;;;;16.41;73.97;100050.38;4842979;29;20390;-80
2020/12/05 16:20:10;;;;;;;5.13;1.20;;;;;;;16.36;73.68;100054.81;4835444;29;20042;-80
2020/12/05 16:22:36;;;;;;;4.47;1.45;;;;;;;16.33;73.75;100058.31;4844534;29;20058;-79
2020/12/05 16:25:06;;;;;;;4.05;1.40;;;;;;;16.30;74.17;100057.50;4846405;29;20159;-79
2020/12/05 16:27:31;;;;;;;3.95;1.00;;;;;;;16.27;73.94;100073.97;4838886;29;20026;-79
2020/12/05 16:29:57;;;;;;;2.03;1.10;;;;;;;16.25;73.90;100071.41;4842963;29;20038;-79
2020/12/05 16:32:23;;;;;;;2.65;1.00;;;;;;;16.27;73.92;100079.19;4834732;29;20041;-79
2020/12/05 16:34:49;;;;;;;2.40;1.23;;;;;;;16.28;74.20;100074.84;4845667;29;20517;-79
2020/12/05 16:37:18;;;;;;;3.30;1.25;;;;;;;16.29;73.75;100073.94;4848757;29;20065;-79
2020/12/05 16:39:44;;;;;;;2.88;1.10;;;;;;;16.28;73.76;100072.25;4860083;29;20115;-79
2020/12/05 16:42:10;;;;;;;3.45;1.00;;;;;;;16.28;73.78;100067.91;4830541;29;20069;-79
2020/12/05 16:44:36;;;;;;;1.48;0.88;;;;;;;16.30;73.68;100075.66;4846981;29;20044;-79
2020/12/05 16:47:01;;;;;;;2.17;1.02;;;;;;;16.32;73.54;100084.28;4825167;29;20489;-79
2020/12/05 16:49:26;;;;;;;1.60;1.00;;;;;;;16.32;73.58;100079.94;4811918;29;20430;-79
2020/12/05 16:51:52;;;;;;;1.88;1.00;;;;;;;16.31;73.81;100066.97;4831007;29;20499;-80
2020/12/05 16:54:18;;;;;;;1.55;1.00;;;;;;;16.33;73.74;100076.47;4852346;29;20037;-79
2020/12/05 16:56:43;;;;;;;1.70;1.00;;;;;;;16.34;73.52;100074.75;4845164;29;20041;-79
2020/12/05 16:59:09;;;;;;;2.55;1.10;;;;;;;16.33;73.55;100071.28;4830537;29;20025;-79
2020/12/05 17:01:34;;;;;;;1.50;0.90;;;;;;;16.35;73.64;100076.44;4814869;29;20037;-79
2020/12/05 17:03:59;;;;;;;1.38;0.90;;;;;;;16.35;73.52;100079.91;4835370;29;20511;-78
2020/12/05 17:06:25;;;;;;;3.28;1.10;;;;;;;16.36;72.97;100088.56;4815024;29;20057;-78
2020/12/05 17:08:50;;;;;;;1.17;0.80;;;;;;;16.37;73.18;100079.88;4829896;29;20057;-78
2020/12/05 17:11:16;;;;;;;1.45;1.00;;;;;;;16.37;73.48;100092.84;4844986;29;20057;-78
2020/12/05 17:13:42;;;;;;;1.80;0.90;;;;;;;16.37;73.49;100092.84;4821632;29;20056;-78
2020/12/05 17:16:08;;;;;;;1.70;0.88;;;;;;;16.39;73.49;100098.88;4841166;29;20116;-78
2020/12/05 17:18:34;;;;;;;2.10;1.08;;;;;;;16.38;73.44;100099.78;4840884;29;20480;-78
2020/12/05 17:20:59;;;;;;;2.88;0.85;;;;;;;16.39;73.21;100106.66;4838917;29;20034;-78
2020/12/05 17:23:25;;;;;;;1.48;0.90;;;;;;;16.40;73.55;100103.22;4835613;29;20129;-79
2020/12/05 17:25:50;;;;;;;1.75;0.82;;;;;;;16.40;72.97;100111.84;4839877;29;20042;-80
2020/12/05 17:28:15;;;;;;;1.42;0.93;;;;;;;16.41;73.45;100117.88;4835722;29;20049;-77
2020/12/05 17:30:41;;;;;;;1.73;1.00;;;;;;;16.43;73.17;100116.97;4830417;29;20445;-76
2020/12/05 17:33:06;;;;;;;4.20;0.90;;;;;;;16.43;73.26;100119.56;4838992;29;20041;-78
2020/12/05 17:35:32;;;;;;;4.30;0.80;;;;;;;16.43;73.28;100121.31;4813869;29;20037;-77
2020/12/05 17:37:57;;;;;;;3.60;1.00;;;;;;;16.45;73.30;100129.94;4837522;29;20041;-76
2020/12/05 17:40:22;;;;;;;2.55;1.10;;;;;;;16.45;73.31;100133.41;4861707;29;20026;-81
2020/12/05 17:42:48;;;;;;;3.33;1.10;;;;;;;16.44;73.29;100136.03;4814667;29;20140;-77
2020/12/05 17:45:13;;;;;;;3.25;0.93;;;;;;;16.44;73.51;100141.22;4839276;29;20021;-79
2020/12/05 17:47:40;;;;;;;1.60;0.93;;;;;;;16.44;73.33;100131.69;4830711;29;20532;-78
2020/12/05 17:50:06;;;;;;;7.50;1.15;;;;;;;16.43;73.19;100136.91;4851444;29;20033;-80
2020/12/05 17:52:31;;;;;;;13.68;2.17;;;;;;;16.45;73.49;100133.41;4830110;29;20434;-80
2020/12/05 17:54:57;;;;;;;37.42;6.13;;;;;;;16.48;73.86;100139.41;4818836;29;20041;-79
2020/12/05 17:57:22;;;;;;;79.65;16.80;;;;;;;16.49;74.04;100142.00;4812207;29;20034;-77